Taiyoumaru No.8 — JD2246 — position and weather

sailwx.info

Track history (hours):
 
Tides and Currents Weather Stations Pressure Air Temp Water Temp Dewpoint Dewpoint Depression Visibility Wind Speed Wind Dir Waves Ship Positions

Taiyoumaru No.8

Last reported at 2018-Feb-23 10:45 UTC. Time now 2018-Feb-23 12:30 UTC.
Position N 34°50' E 139°36'.

Length 70 m; draft 4.3 m.

Type: Cargo ship. MMSI: 431402047.

Date/timePositionNaut miles runAvg speedWind from/ knotsBaromVisibWave heightAir tempDewpointWater temp
2018-Feb-23 10:45N 34°50' E 139°36'710.2
2018-Feb-23 10:04N 34°50' E 139°28'410.4
2018-Feb-23 09:40N 34°49' E 139°23'310.0
2018-Feb-23 09:24N 34°49' E 139°19'510.1
2018-Feb-23 08:57N 34°47' E 139°15'4 9.9
2018-Feb-23 08:30N 34°44' E 139°11'5 9.8
2018-Feb-23 07:58N 34°41' E 139°05'6 9.9
2018-Feb-23 07:23N 34°37' E 138°60'410.4
2018-Feb-23 07:00N 34°35' E 138°56'510.7
2018-Feb-23 06:30N 34°35' E 138°49'610.3
2018-Feb-23 05:53N 34°34' E 138°41'710.4
2018-Feb-23 05:14N 34°33' E 138°33'910.7
2018-Feb-23 04:26N 34°33' E 138°23'510.5
2018-Feb-23 03:58N 34°32' E 138°17'166 8.7
2018-Feb-22 08:58N 33°50' E 135°03'510.7
2018-Feb-22 08:30N 33°53' E 134°59'510.5
2018-Feb-22 08:00N 33°57' E 134°55'710.7
2018-Feb-22 07:24N 34°03' E 134°50'410.9
2018-Feb-22 07:00N 34°06' E 134°47'711.4
2018-Feb-22 06:25N 34°11' E 134°42'511.5
2018-Feb-22 05:59N 34°15' E 134°38'610.9
2018-Feb-22 05:26N 34°17' E 134°31'510.3
2018-Feb-22 04:57N 34°19' E 134°26'510.1
2018-Feb-22 04:30N 34°21' E 134°21'82 2.2
2018-Feb-20 14:47N 34°04' E 132°43'312.2
2018-Feb-20 14:30N 34°02' E 132°40'812.2
2018-Feb-20 13:49N 33°57' E 132°32'512.2
2018-Feb-20 13:27N 33°54' E 132°28'612.4
2018-Feb-20 12:59N 33°50' E 132°22'711.7
2018-Feb-20 12:25N 33°50' E 132°15'511.7
2018-Feb-20 11:58N 33°48' E 132°09'511.3
2018-Feb-20 11:30N 33°46' E 132°03'510.9
2018-Feb-20 11:00N 33°45' E 131°56'610.9
2018-Feb-20 10:29N 33°46' E 131°50'510.8
2018-Feb-20 10:00N 33°47' E 131°43'511.1
2018-Feb-20 09:30N 33°49' E 131°37'611.3
2018-Feb-20 09:00N 33°50' E 131°30'611.4
2018-Feb-20 08:30N 33°51' E 131°23'611.8
2018-Feb-20 08:00N 33°52' E 131°17'4 8.2
2018-Feb-20 07:30N 33°56' E 131°14'1 1.5
2018-Feb-20 07:00N 33°56' E 131°15'0 0.0
2018-Feb-20 06:30N 33°56' E 131°15'2 3.7
2018-Feb-20 06:00N 33°55' E 131°13'611.7
2018-Feb-20 05:30N 33°51' E 131°08'611.5
2018-Feb-20 05:00N 33°48' E 131°02'2 3.6
2018-Feb-20 04:30N 33°48' E 130°60'0 0.0
2018-Feb-20 04:00N 33°48' E 130°60'0 0.0
2018-Feb-20 03:30N 33°48' E 130°60'0 0.0
2018-Feb-20 03:00N 33°48' E 130°60'0 0.0
2018-Feb-20 02:30N 33°48' E 130°60'0 0.0
2018-Feb-20 02:00N 33°48' E 130°60'0 0.0
2018-Feb-20 01:30N 33°48' E 130°60'0 0.0
2018-Feb-20 01:00N 33°48' E 130°60'0 0.0
2018-Feb-20 00:30N 33°48' E 130°60'0 0.0
2018-Feb-20 00:00N 33°48' E 130°60'0 0.0
2018-Feb-19 23:30N 33°48' E 130°60'0 0.1
2018-Feb-19 23:00N 33°48' E 130°60'3 5.3
2018-Feb-19 22:30N 33°48' E 131°03'3 6.3
2018-Feb-19 22:00N 33°48' E 131°07'3 5.3
2018-Feb-19 21:30N 33°47' E 131°10'5 9.3
2018-Feb-19 21:00N 33°47' E 131°15'5 9.1
2018-Feb-19 20:30N 33°47' E 131°21'510.0
2018-Feb-19 20:00N 33°46' E 131°27'510.0
2018-Feb-19 19:30N 33°46' E 131°33'5 9.8
2018-Feb-19 19:00N 33°47' E 131°39'5 9.8
2018-Feb-19 18:30N 33°46' E 131°44'510.1
2018-Feb-19 18:00N 33°46' E 131°51'510.1
2018-Feb-19 17:30N 33°46' E 131°57'510.3
2018-Feb-19 17:00N 33°46' E 132°03'811.2
2018-Feb-19 16:19N 33°49' E 132°11'310.6
2018-Feb-19 16:00N 33°50' E 132°15'510.6
2018-Feb-19 15:30N 33°50' E 132°21'510.3
2018-Feb-19 14:58N 33°53' E 132°27'7 9.9
2018-Feb-19 14:14N 33°58' E 132°33'2 8.4
2018-Feb-19 13:58N 33°60' E 132°35'4 9.6
2018-Feb-19 13:30N 34°02' E 132°40'93 2.6
2018-Feb-18 01:59N 34°18' E 134°30'611.0
2018-Feb-18 01:24N 34°16' E 134°37'511.0
2018-Feb-18 00:58N 34°12' E 134°41'611.3
2018-Feb-18 00:28N 34°08' E 134°45'511.1
2018-Feb-17 23:59N 34°04' E 134°50'511.0
2018-Feb-17 23:30N 33°60' E 134°54'611.0
2018-Feb-17 23:00N 33°55' E 134°58'510.4
2018-Feb-17 22:29N 33°51' E 135°03'116 8.4
2018-Feb-17 08:33N 34°33' E 137°14'1 9.2
2018-Feb-17 08:27N 34°34' E 137°15'51 7.3
2018-Feb-17 01:26N 34°36' E 138°17'4 9.3
2018-Feb-17 01:00N 34°39' E 138°19'6 9.9
2018-Feb-17 00:25N 34°45' E 138°22'410.0
2018-Feb-17 00:00N 34°48' E 138°24'5 9.6
2018-Feb-16 23:29N 34°52' E 138°28'4 8.9
2018-Feb-16 23:00N 34°54' E 138°33'4 8.9
2018-Feb-16 22:30N 34°56' E 138°38'5 9.4
2018-Feb-16 22:00N 34°59' E 138°42'510.3
2018-Feb-16 21:30N 35°02' E 138°47'4 8.8
2018-Feb-16 21:00N 35°05' E 138°51'0 0.1
2018-Feb-16 20:30N 35°05' E 138°51'0 0.0
2018-Feb-16 20:00N 35°05' E 138°51'0 0.0
2018-Feb-16 19:30N 35°05' E 138°51'0 0.0
2018-Feb-16 19:00N 35°05' E 138°51'0 0.0
2018-Feb-16 18:30N 35°05' E 138°51'0 0.0
2018-Feb-16 18:00N 35°05' E 138°51'0 0.0
2018-Feb-16 17:30N 35°05' E 138°51'0 0.0
2018-Feb-16 17:00N 35°05' E 138°51'0 0.0
2018-Feb-16 16:29N 35°05' E 138°51'0 0.0
2018-Feb-16 16:00N 35°05' E 138°51'0 0.0
2018-Feb-16 15:30N 35°05' E 138°51'0 0.0
2018-Feb-16 15:00N 35°05' E 138°51'0 0.0
2018-Feb-16 14:30N 35°05' E 138°51'0 0.0
2018-Feb-16 14:00N 35°05' E 138°51'0 0.0
2018-Feb-16 13:29N 35°05' E 138°51'0 0.0
2018-Feb-16 13:00N 35°05' E 138°51'0 0.0
2018-Feb-16 12:30N 35°05' E 138°51'0 0.0
2018-Feb-16 12:00N 35°05' E 138°51'0 0.0
2018-Feb-16 11:30N 35°05' E 138°51'0 0.0
2018-Feb-16 11:00N 35°05' E 138°51'0 0.0
2018-Feb-16 10:30N 35°05' E 138°51'0 0.0
2018-Feb-16 10:00N 35°05' E 138°51'0 0.0
2018-Feb-16 09:30N 35°05' E 138°51'0 0.0
2018-Feb-16 09:00N 35°05' E 138°51'0 0.0
2018-Feb-16 08:27N 35°05' E 138°51'0 0.0
2018-Feb-16 08:00N 35°05' E 138°51'0 0.0
2018-Feb-16 07:30N 35°05' E 138°51'0 0.0
2018-Feb-16 07:00N 35°05' E 138°51'0 0.0
2018-Feb-16 06:30N 35°05' E 138°51'0 0.0
2018-Feb-16 06:00N 35°05' E 138°51'0 0.0
2018-Feb-16 05:30N 35°05' E 138°51'0 0.0
2018-Feb-16 05:00N 35°05' E 138°51'0 0.0
2018-Feb-16 04:30N 35°05' E 138°51'0 0.0
2018-Feb-16 04:00N 35°05' E 138°51'0 0.0
2018-Feb-16 03:30N 35°05' E 138°51'0 0.0
2018-Feb-16 03:00N 35°05' E 138°51'1 2.6
2018-Feb-16 02:29N 35°04' E 138°50'510.7
2018-Feb-16 02:00N 35°01' E 138°45'611.0
2018-Feb-16 01:30N 34°59' E 138°39'510.6
2018-Feb-16 01:00N 34°56' E 138°33'510.2
2018-Feb-16 00:30N 34°53' E 138°28'510.3
2018-Feb-16 00:00N 34°50' E 138°23'5 8.0
2018-Feb-15 23:20N 34°47' E 138°18'0 0.1
2018-Feb-15 22:56N 34°47' E 138°18'0 0.0
2018-Feb-15 22:30N 34°47' E 138°18'0 0.0
2018-Feb-15 19:29N 34°47' E 138°18'0 0.0
2018-Feb-15 18:39N 34°47' E 138°18'0 0.0
2018-Feb-15 18:25N 34°47' E 138°18'0 0.0
2018-Feb-15 11:49N 34°47' E 138°18'1 2.7
2018-Feb-15 11:28N 34°47' E 138°19'510.2
2018-Feb-15 10:59N 34°42' E 138°18'510.5
2018-Feb-15 10:29N 34°37' E 138°17'166 9.1
2018-Feb-14 16:08N 33°48' E 135°05'410.8
2018-Feb-14 15:45N 33°51' E 135°02'310.7
2018-Feb-14 15:30N 33°53' E 134°60'510.8
2018-Feb-14 15:00N 33°57' E 134°56'510.8
2018-Feb-14 14:30N 34°01' E 134°52'510.8
2018-Feb-14 14:00N 34°05' E 134°47'711.2
2018-Feb-14 13:24N 34°11' E 134°42'512.2
2018-Feb-14 12:57N 34°15' E 134°38'510.8
2018-Feb-14 12:30N 34°17' E 134°33'510.3
2018-Feb-14 12:00N 34°19' E 134°27'  
Track history (hours):
 
Tides and Currents Weather Stations Pressure Air Temp Water Temp Dewpoint Dewpoint Depression Visibility Wind Speed Wind Dir Waves Ship Positions

Taiyoumaru No.8

Last reported at 2018-Feb-23 10:45 UTC. Time now 2018-Feb-23 12:30 UTC.
Position N 34°50' E 139°36'.

Length 70 m; draft 4.3 m.

Type: Cargo ship. MMSI: 431402047.

Date/timePositionNaut miles runAvg speedWind from/ knotsBaromVisibWave heightAir tempDewpointWater temp
2018-Feb-23 10:45N 34°50' E 139°36'710.2
2018-Feb-23 10:04N 34°50' E 139°28'410.4
2018-Feb-23 09:40N 34°49' E 139°23'310.0
2018-Feb-23 09:24N 34°49' E 139°19'510.1
2018-Feb-23 08:57N 34°47' E 139°15'4 9.9
2018-Feb-23 08:30N 34°44' E 139°11'5 9.8
2018-Feb-23 07:58N 34°41' E 139°05'6 9.9
2018-Feb-23 07:23N 34°37' E 138°60'410.4
2018-Feb-23 07:00N 34°35' E 138°56'510.7
2018-Feb-23 06:30N 34°35' E 138°49'610.3
2018-Feb-23 05:53N 34°34' E 138°41'710.4
2018-Feb-23 05:14N 34°33' E 138°33'910.7
2018-Feb-23 04:26N 34°33' E 138°23'510.5
2018-Feb-23 03:58N 34°32' E 138°17'166 8.7
2018-Feb-22 08:58N 33°50' E 135°03'510.7
2018-Feb-22 08:30N 33°53' E 134°59'510.5
2018-Feb-22 08:00N 33°57' E 134°55'710.7
2018-Feb-22 07:24N 34°03' E 134°50'410.9
2018-Feb-22 07:00N 34°06' E 134°47'711.4
2018-Feb-22 06:25N 34°11' E 134°42'511.5
2018-Feb-22 05:59N 34°15' E 134°38'610.9
2018-Feb-22 05:26N 34°17' E 134°31'510.3
2018-Feb-22 04:57N 34°19' E 134°26'510.1
2018-Feb-22 04:30N 34°21' E 134°21'82 2.2
2018-Feb-20 14:47N 34°04' E 132°43'312.2
2018-Feb-20 14:30N 34°02' E 132°40'812.2
2018-Feb-20 13:49N 33°57' E 132°32'512.2
2018-Feb-20 13:27N 33°54' E 132°28'612.4
2018-Feb-20 12:59N 33°50' E 132°22'711.7
2018-Feb-20 12:25N 33°50' E 132°15'511.7
2018-Feb-20 11:58N 33°48' E 132°09'511.3
2018-Feb-20 11:30N 33°46' E 132°03'510.9
2018-Feb-20 11:00N 33°45' E 131°56'610.9
2018-Feb-20 10:29N 33°46' E 131°50'510.8
2018-Feb-20 10:00N 33°47' E 131°43'511.1
2018-Feb-20 09:30N 33°49' E 131°37'611.3
2018-Feb-20 09:00N 33°50' E 131°30'611.4
2018-Feb-20 08:30N 33°51' E 131°23'611.8
2018-Feb-20 08:00N 33°52' E 131°17'4 8.2
2018-Feb-20 07:30N 33°56' E 131°14'1 1.5
2018-Feb-20 07:00N 33°56' E 131°15'0 0.0
2018-Feb-20 06:30N 33°56' E 131°15'2 3.7
2018-Feb-20 06:00N 33°55' E 131°13'611.7
2018-Feb-20 05:30N 33°51' E 131°08'611.5
2018-Feb-20 05:00N 33°48' E 131°02'2 3.6
2018-Feb-20 04:30N 33°48' E 130°60'0 0.0
2018-Feb-20 04:00N 33°48' E 130°60'0 0.0
2018-Feb-20 03:30N 33°48' E 130°60'0 0.0
2018-Feb-20 03:00N 33°48' E 130°60'0 0.0
2018-Feb-20 02:30N 33°48' E 130°60'0 0.0
2018-Feb-20 02:00N 33°48' E 130°60'0 0.0
2018-Feb-20 01:30N 33°48' E 130°60'0 0.0
2018-Feb-20 01:00N 33°48' E 130°60'0 0.0
2018-Feb-20 00:30N 33°48' E 130°60'0 0.0
2018-Feb-20 00:00N 33°48' E 130°60'0 0.0
2018-Feb-19 23:30N 33°48' E 130°60'0 0.1
2018-Feb-19 23:00N 33°48' E 130°60'3 5.3
2018-Feb-19 22:30N 33°48' E 131°03'3 6.3
2018-Feb-19 22:00N 33°48' E 131°07'3 5.3
2018-Feb-19 21:30N 33°47' E 131°10'5 9.3
2018-Feb-19 21:00N 33°47' E 131°15'5 9.1
2018-Feb-19 20:30N 33°47' E 131°21'510.0
2018-Feb-19 20:00N 33°46' E 131°27'510.0
2018-Feb-19 19:30N 33°46' E 131°33'5 9.8
2018-Feb-19 19:00N 33°47' E 131°39'5 9.8
2018-Feb-19 18:30N 33°46' E 131°44'510.1
2018-Feb-19 18:00N 33°46' E 131°51'510.1
2018-Feb-19 17:30N 33°46' E 131°57'510.3
2018-Feb-19 17:00N 33°46' E 132°03'811.2
2018-Feb-19 16:19N 33°49' E 132°11'310.6
2018-Feb-19 16:00N 33°50' E 132°15'510.6
2018-Feb-19 15:30N 33°50' E 132°21'510.3
2018-Feb-19 14:58N 33°53' E 132°27'7 9.9
2018-Feb-19 14:14N 33°58' E 132°33'2 8.4
2018-Feb-19 13:58N 33°60' E 132°35'4 9.6
2018-Feb-19 13:30N 34°02' E 132°40'93 2.6
2018-Feb-18 01:59N 34°18' E 134°30'611.0
2018-Feb-18 01:24N 34°16' E 134°37'511.0
2018-Feb-18 00:58N 34°12' E 134°41'611.3
2018-Feb-18 00:28N 34°08' E 134°45'511.1
2018-Feb-17 23:59N 34°04' E 134°50'511.0
2018-Feb-17 23:30N 33°60' E 134°54'611.0
2018-Feb-17 23:00N 33°55' E 134°58'510.4
2018-Feb-17 22:29N 33°51' E 135°03'116 8.4
2018-Feb-17 08:33N 34°33' E 137°14'1 9.2
2018-Feb-17 08:27N 34°34' E 137°15'51 7.3
2018-Feb-17 01:26N 34°36' E 138°17'4 9.3
2018-Feb-17 01:00N 34°39' E 138°19'6 9.9
2018-Feb-17 00:25N 34°45' E 138°22'410.0
2018-Feb-17 00:00N 34°48' E 138°24'5 9.6
2018-Feb-16 23:29N 34°52' E 138°28'4 8.9
2018-Feb-16 23:00N 34°54' E 138°33'4 8.9
2018-Feb-16 22:30N 34°56' E 138°38'5 9.4
2018-Feb-16 22:00N 34°59' E 138°42'510.3
2018-Feb-16 21:30N 35°02' E 138°47'4 8.8
2018-Feb-16 21:00N 35°05' E 138°51'0 0.1
2018-Feb-16 20:30N 35°05' E 138°51'0 0.0
2018-Feb-16 20:00N 35°05' E 138°51'0 0.0
2018-Feb-16 19:30N 35°05' E 138°51'0 0.0
2018-Feb-16 19:00N 35°05' E 138°51'0 0.0
2018-Feb-16 18:30N 35°05' E 138°51'0 0.0
2018-Feb-16 18:00N 35°05' E 138°51'0 0.0
2018-Feb-16 17:30N 35°05' E 138°51'0 0.0
2018-Feb-16 17:00N 35°05' E 138°51'0 0.0
2018-Feb-16 16:29N 35°05' E 138°51'0 0.0
2018-Feb-16 16:00N 35°05' E 138°51'0 0.0
2018-Feb-16 15:30N 35°05' E 138°51'0 0.0
2018-Feb-16 15:00N 35°05' E 138°51'0 0.0
2018-Feb-16 14:30N 35°05' E 138°51'0 0.0
2018-Feb-16 14:00N 35°05' E 138°51'0 0.0
2018-Feb-16 13:29N 35°05' E 138°51'0 0.0
2018-Feb-16 13:00N 35°05' E 138°51'0 0.0
2018-Feb-16 12:30N 35°05' E 138°51'0 0.0
2018-Feb-16 12:00N 35°05' E 138°51'0 0.0
2018-Feb-16 11:30N 35°05' E 138°51'0 0.0
2018-Feb-16 11:00N 35°05' E 138°51'0 0.0
2018-Feb-16 10:30N 35°05' E 138°51'0 0.0
2018-Feb-16 10:00N 35°05' E 138°51'0 0.0
2018-Feb-16 09:30N 35°05' E 138°51'0 0.0
2018-Feb-16 09:00N 35°05' E 138°51'0 0.0
2018-Feb-16 08:27N 35°05' E 138°51'0 0.0
2018-Feb-16 08:00N 35°05' E 138°51'0 0.0
2018-Feb-16 07:30N 35°05' E 138°51'0 0.0
2018-Feb-16 07:00N 35°05' E 138°51'0 0.0
2018-Feb-16 06:30N 35°05' E 138°51'0 0.0
2018-Feb-16 06:00N 35°05' E 138°51'0 0.0
2018-Feb-16 05:30N 35°05' E 138°51'0 0.0
2018-Feb-16 05:00N 35°05' E 138°51'0 0.0
2018-Feb-16 04:30N 35°05' E 138°51'0 0.0
2018-Feb-16 04:00N 35°05' E 138°51'0 0.0
2018-Feb-16 03:30N 35°05' E 138°51'0 0.0
2018-Feb-16 03:00N 35°05' E 138°51'1 2.6
2018-Feb-16 02:29N 35°04' E 138°50'510.7
2018-Feb-16 02:00N 35°01' E 138°45'611.0
2018-Feb-16 01:30N 34°59' E 138°39'510.6
2018-Feb-16 01:00N 34°56' E 138°33'510.2
2018-Feb-16 00:30N 34°53' E 138°28'510.3
2018-Feb-16 00:00N 34°50' E 138°23'5 8.0
2018-Feb-15 23:20N 34°47' E 138°18'0 0.1
2018-Feb-15 22:56N 34°47' E 138°18'0 0.0
2018-Feb-15 22:30N 34°47' E 138°18'0 0.0
2018-Feb-15 19:29N 34°47' E 138°18'0 0.0
2018-Feb-15 18:39N 34°47' E 138°18'0 0.0
2018-Feb-15 18:25N 34°47' E 138°18'0 0.0
2018-Feb-15 11:49N 34°47' E 138°18'1 2.7
2018-Feb-15 11:28N 34°47' E 138°19'510.2
2018-Feb-15 10:59N 34°42' E 138°18'510.5
2018-Feb-15 10:29N 34°37' E 138°17'166 9.1
2018-Feb-14 16:08N 33°48' E 135°05'410.8
2018-Feb-14 15:45N 33°51' E 135°02'310.7
2018-Feb-14 15:30N 33°53' E 134°60'510.8
2018-Feb-14 15:00N 33°57' E 134°56'510.8
2018-Feb-14 14:30N 34°01' E 134°52'510.8
2018-Feb-14 14:00N 34°05' E 134°47'711.2
2018-Feb-14 13:24N 34°11' E 134°42'512.2
2018-Feb-14 12:57N 34°15' E 134°38'510.8
2018-Feb-14 12:30N 34°17' E 134°33'510.3
2018-Feb-14 12:00N 34°19' E 134°27'  

Dump ship's entire track history